createdAt,value
2022-09-15T00:01:19.790Z,10.90
2022-09-15T00:03:48.536Z,8.10
2022-09-15T00:06:17.153Z,9.50
2022-09-15T00:08:45.143Z,11.60
2022-09-15T00:11:19.752Z,11.40
2022-09-15T00:13:47.374Z,7.80
2022-09-15T00:16:18.132Z,9.80
2022-09-15T00:18:46.566Z,8.70
2022-09-15T00:21:22.574Z,14.90
2022-09-15T00:23:51.493Z,9.10
2022-09-15T00:26:24.926Z,13.00
2022-09-15T00:28:53.389Z,9.30
2022-09-15T00:31:24.210Z,9.30
2022-09-15T00:33:55.629Z,8.90
2022-09-15T00:38:52.394Z,10.70
2022-09-15T00:41:23.054Z,9.30
2022-09-15T00:44:01.341Z,8.30
2022-09-15T00:46:39.019Z,10.50
2022-09-15T00:49:16.152Z,8.40
2022-09-15T00:52:08.762Z,9.50
2022-09-15T00:55:10.203Z,7.50
2022-09-15T00:58:03.551Z,12.50
2022-09-15T01:00:31.238Z,11.30
2022-09-15T01:02:59.793Z,10.10
2022-09-15T01:05:38.256Z,9.20
2022-09-15T01:08:11.841Z,15.30
2022-09-15T01:10:41.555Z,15.60
2022-09-15T01:13:14.620Z,9.70
2022-09-15T01:16:16.475Z,11.70
2022-09-15T01:19:16.381Z,9.60
2022-09-15T01:22:22.637Z,10.30
2022-09-15T01:25:29.958Z,10.60
2022-09-15T01:28:44.462Z,9.80
2022-09-15T01:32:05.873Z,13.30
2022-09-15T01:34:45.022Z,11.00
2022-09-15T01:37:24.165Z,10.90
2022-09-15T01:39:54.426Z,11.80
2022-09-15T01:42:26.526Z,10.30
2022-09-15T01:45:03.858Z,11.10
2022-09-15T01:47:35.218Z,9.60
2022-09-15T01:50:16.230Z,9.20
2022-09-15T01:52:49.680Z,11.30
2022-09-15T01:55:52.187Z,9.20
2022-09-15T01:58:21.265Z,9.60
2022-09-15T02:00:59.282Z,15.20
2022-09-15T02:03:55.403Z,9.70
2022-09-15T02:06:33.758Z,10.50
2022-09-15T02:09:12.727Z,10.90
2022-09-15T02:12:07.734Z,10.50
2022-09-15T02:15:14.962Z,9.80
2022-09-15T02:17:47.701Z,10.80
2022-09-15T02:20:29.776Z,10.50
2022-09-15T02:23:08.514Z,9.50
2022-09-15T02:25:48.064Z,10.70
2022-09-15T02:28:21.609Z,10.80
2022-09-15T02:30:52.911Z,13.00
2022-09-15T02:35:52.693Z,15.30
2022-09-15T02:38:21.593Z,11.50
2022-09-15T02:40:49.393Z,13.60
2022-09-15T02:43:18.726Z,10.60
2022-09-15T02:45:46.715Z,12.20
2022-09-15T02:48:14.601Z,10.00
2022-09-15T02:50:42.374Z,10.00
2022-09-15T02:53:10.030Z,13.00
2022-09-15T02:55:37.973Z,9.40
2022-09-15T02:58:05.755Z,8.20
2022-09-15T03:00:33.530Z,8.20
2022-09-15T03:03:01.256Z,10.20
2022-09-15T03:05:30.441Z,8.10
2022-09-15T03:07:58.166Z,10.00
2022-09-15T03:10:26.593Z,12.90
2022-09-15T03:12:54.981Z,7.90
2022-09-15T03:15:26.175Z,10.80
2022-09-15T03:17:54.773Z,10.10
2022-09-15T03:20:28.573Z,12.70
2022-09-15T03:22:56.751Z,11.50
2022-09-15T03:25:26.819Z,10.80
2022-09-15T03:27:54.520Z,8.20
2022-09-15T03:30:22.145Z,9.50
2022-09-15T03:32:50.056Z,8.70
2022-09-15T03:35:17.929Z,10.70
2022-09-15T03:37:45.856Z,10.60
2022-09-15T03:40:14.300Z,14.10
2022-09-15T03:42:42.575Z,9.70
2022-09-15T03:45:10.235Z,10.80
2022-09-15T03:47:37.946Z,8.60
2022-09-15T03:50:06.908Z,11.90
2022-09-15T03:52:34.611Z,13.10
2022-09-15T03:55:02.254Z,11.40
2022-09-15T03:57:30.479Z,13.40
2022-09-15T03:59:58.078Z,12.90
2022-09-15T04:02:25.758Z,17.50
2022-09-15T04:04:53.436Z,14.50
2022-09-15T04:07:21.068Z,15.30
2022-09-15T04:09:48.663Z,10.60
2022-09-15T04:12:16.735Z,17.30
2022-09-15T04:14:44.423Z,12.80
2022-09-15T04:17:12.049Z,13.40
2022-09-15T04:19:40.649Z,15.10
2022-09-15T04:22:08.293Z,14.60
2022-09-15T04:24:35.927Z,15.80
2022-09-15T04:27:03.974Z,12.20
2022-09-15T04:29:31.617Z,15.20
2022-09-15T04:31:59.282Z,19.30
2022-09-15T04:34:26.923Z,19.80
2022-09-15T04:36:54.515Z,16.10
2022-09-15T04:39:22.441Z,19.60
2022-09-15T04:41:50.109Z,22.50
2022-09-15T04:44:18.236Z,19.50
2022-09-15T04:46:46.052Z,20.10
2022-09-15T04:49:15.081Z,18.70
2022-09-15T04:51:42.808Z,18.00
2022-09-15T04:54:10.843Z,20.80
2022-09-15T04:56:39.478Z,23.90
2022-09-15T04:59:15.798Z,19.00
2022-09-15T05:01:44.183Z,18.20
2022-09-15T05:04:12.457Z,21.50
2022-09-15T05:06:40.330Z,19.00
2022-09-15T05:09:10.417Z,15.60
2022-09-15T05:11:38.647Z,18.80
2022-09-15T05:14:07.999Z,22.40
2022-09-15T05:16:36.163Z,22.20
2022-09-15T05:19:04.694Z,21.30
2022-09-15T05:21:32.899Z,27.40
2022-09-15T05:24:00.754Z,23.40
2022-09-15T05:26:30.148Z,19.20
2022-09-15T05:28:58.548Z,18.70
2022-09-15T05:31:36.686Z,21.70
2022-09-15T05:34:06.248Z,24.90
2022-09-15T05:36:34.359Z,19.00
2022-09-15T05:39:02.256Z,27.00
2022-09-15T05:41:30.869Z,21.10
2022-09-15T05:43:59.183Z,15.40
2022-09-15T05:46:29.086Z,20.10
2022-09-15T05:48:59.018Z,20.00
2022-09-15T05:51:26.787Z,17.20
2022-09-15T05:53:54.589Z,16.80
2022-09-15T05:56:22.476Z,20.00
2022-09-15T05:58:50.231Z,18.40
2022-09-15T06:01:22.259Z,16.90
2022-09-15T06:03:50.613Z,18.50
2022-09-15T06:06:19.614Z,21.40
2022-09-15T06:08:55.390Z,15.40
2022-09-15T06:11:29.040Z,18.30
2022-09-15T06:14:03.287Z,15.00
2022-09-15T06:16:34.733Z,15.70
2022-09-15T06:19:03.373Z,13.80
2022-09-15T06:21:33.055Z,16.00
2022-09-15T06:24:06.316Z,20.00
2022-09-15T06:26:34.744Z,13.10
2022-09-15T06:29:05.084Z,17.20
2022-09-15T06:34:03.976Z,17.30
2022-09-15T06:36:32.156Z,17.00
2022-09-15T06:39:00.374Z,13.30
2022-09-15T06:41:47.434Z,16.30
2022-09-15T06:44:19.858Z,14.00
2022-09-15T06:46:49.288Z,12.90
2022-09-15T06:49:17.587Z,15.90
2022-09-15T06:51:45.362Z,12.70
2022-09-15T06:54:15.943Z,9.50
2022-09-15T06:56:44.494Z,23.90
2022-09-15T06:59:14.457Z,12.70
2022-09-15T07:01:46.730Z,11.50
2022-09-15T07:04:14.394Z,16.70
2022-09-15T07:06:42.012Z,16.10
2022-09-15T07:09:11.810Z,13.50
2022-09-15T07:11:39.865Z,11.90
2022-09-15T07:14:07.855Z,12.20
2022-09-15T07:16:35.653Z,19.20
2022-09-15T07:19:05.752Z,15.50
2022-09-15T07:21:34.189Z,12.50
2022-09-15T07:24:06.410Z,12.30
2022-09-15T07:26:35.343Z,11.20
2022-09-15T07:29:06.822Z,12.70
2022-09-15T07:31:37.973Z,12.20
2022-09-15T07:34:07.032Z,15.80
2022-09-15T07:36:35.138Z,24.70
2022-09-15T07:39:04.914Z,11.50
2022-09-15T07:41:33.428Z,12.70
2022-09-15T07:44:01.557Z,13.70
2022-09-15T07:46:32.401Z,11.70
2022-09-15T07:49:03.082Z,12.10
2022-09-15T07:51:31.151Z,10.20
2022-09-15T07:53:59.623Z,11.20
2022-09-15T07:56:27.462Z,13.40
2022-09-15T07:58:55.059Z,9.60
2022-09-15T08:01:22.838Z,14.90
2022-09-15T08:03:52.633Z,16.00
2022-09-15T08:06:24.139Z,15.20
2022-09-15T08:08:57.766Z,11.20
2022-09-15T08:11:29.073Z,13.10
2022-09-15T08:14:01.258Z,16.50
2022-09-15T08:16:29.195Z,12.50
2022-09-15T08:18:57.030Z,15.30
2022-09-15T08:21:24.869Z,12.50
2022-09-15T08:23:56.792Z,11.90
2022-09-15T08:26:26.696Z,15.00
2022-09-15T08:28:54.592Z,10.50
2022-09-15T08:31:24.166Z,5.70
2022-09-15T08:33:55.034Z,12.10
2022-09-15T08:36:24.480Z,9.00
2022-09-15T08:38:52.143Z,13.50
2022-09-15T08:41:46.727Z,11.20
2022-09-15T08:44:49.237Z,12.00
2022-09-15T08:47:25.965Z,14.60
2022-09-15T08:50:22.911Z,10.20
2022-09-15T08:52:55.603Z,15.70
2022-09-15T08:55:50.767Z,11.70
2022-09-15T08:58:22.875Z,12.00
2022-09-15T09:01:03.972Z,12.50
2022-09-15T09:03:49.645Z,14.60
2022-09-15T09:06:35.601Z,8.20
2022-09-15T09:09:18.509Z,14.20
2022-09-15T09:12:26.398Z,12.40
2022-09-15T09:15:15.932Z,10.80
2022-09-15T09:18:16.573Z,11.00
2022-09-15T09:21:18.390Z,7.80
2022-09-15T09:24:01.162Z,12.60
2022-09-15T09:26:33.122Z,9.40
2022-09-15T09:29:11.848Z,13.30
2022-09-15T09:31:41.766Z,12.40
2022-09-15T09:34:20.662Z,13.50
2022-09-15T09:37:00.117Z,10.60
2022-09-15T09:39:28.619Z,10.50
2022-09-15T09:41:56.895Z,13.20
2022-09-15T09:44:31.778Z,12.20
2022-09-15T09:47:01.513Z,12.40
2022-09-15T09:49:43.166Z,11.30
2022-09-15T09:52:11.046Z,11.00
2022-09-15T09:54:39.273Z,13.40
2022-09-15T09:57:13.286Z,13.70
2022-09-15T09:59:47.701Z,13.60
2022-09-15T10:02:19.084Z,11.50
2022-09-15T10:05:12.227Z,12.00
2022-09-15T10:07:45.764Z,10.90
2022-09-15T10:10:28.664Z,10.00
2022-09-15T10:12:56.955Z,11.50
2022-09-15T10:15:32.174Z,12.70
2022-09-15T10:18:01.374Z,12.50
2022-09-15T10:20:48.105Z,8.70
2022-09-15T10:23:18.408Z,12.80
2022-09-15T10:26:01.578Z,11.90
2022-09-15T10:28:29.298Z,10.40
2022-09-15T10:31:03.901Z,9.80
2022-09-15T10:33:35.242Z,7.20
2022-09-15T10:39:00.068Z,8.80
2022-09-15T10:41:31.361Z,8.80
2022-09-15T10:44:33.901Z,11.10
2022-09-15T10:47:24.044Z,10.90
2022-09-15T10:50:28.225Z,10.60
2022-09-15T10:53:26.447Z,10.40
2022-09-15T10:56:26.149Z,9.60
2022-09-15T10:59:09.475Z,8.40
2022-09-15T11:01:45.743Z,9.70
2022-09-15T11:04:50.727Z,9.50
2022-09-15T11:08:11.934Z,9.30
2022-09-15T11:10:55.706Z,5.60
2022-09-15T11:13:56.680Z,13.80
2022-09-15T11:16:38.704Z,9.80
2022-09-15T11:19:27.521Z,9.50
2022-09-15T11:22:05.204Z,10.10
2022-09-15T11:24:48.318Z,13.30
2022-09-15T11:27:29.831Z,10.20
2022-09-15T11:30:20.039Z,7.30
2022-09-15T11:33:22.911Z,5.10
2022-09-15T11:36:02.567Z,14.20
2022-09-15T11:38:55.461Z,8.20
2022-09-15T11:41:45.822Z,7.40
2022-09-15T11:44:20.370Z,7.60
2022-09-15T11:47:22.306Z,12.50
2022-09-15T11:50:20.025Z,10.90
2022-09-15T11:53:06.646Z,10.60
2022-09-15T11:55:44.499Z,10.80
2022-09-15T11:58:29.372Z,8.50
2022-09-15T12:01:04.269Z,14.30
2022-09-15T12:03:52.755Z,7.40
2022-09-15T12:06:45.911Z,9.40
2022-09-15T12:09:20.471Z,8.60
2022-09-15T12:11:54.341Z,9.50
2022-09-15T12:14:35.446Z,7.30
2022-09-15T12:19:36.263Z,12.20
2022-09-15T12:22:23.623Z,10.40
2022-09-15T12:25:03.664Z,9.80
2022-09-15T12:27:31.450Z,6.90
2022-09-15T12:30:00.914Z,8.40
2022-09-15T12:32:34.820Z,10.00
2022-09-15T12:35:19.969Z,13.00
2022-09-15T12:37:54.103Z,10.60
2022-09-15T12:40:37.430Z,8.70
2022-09-15T12:43:11.387Z,10.60
2022-09-15T12:45:52.547Z,9.30
2022-09-15T12:48:32.426Z,14.70
2022-09-15T12:51:10.330Z,15.60
2022-09-15T12:53:58.578Z,9.30
2022-09-15T12:56:33.419Z,11.40
2022-09-15T12:59:07.163Z,9.60
2022-09-15T13:01:50.429Z,14.30
2022-09-15T13:04:43.592Z,11.90
2022-09-15T13:07:19.948Z,10.50
2022-09-15T13:10:27.690Z,11.10
2022-09-15T13:13:17.933Z,15.80
2022-09-15T13:15:50.573Z,11.70
2022-09-15T13:18:20.901Z,16.50
2022-09-15T13:21:05.375Z,8.90
2022-09-15T13:23:41.618Z,14.10
2022-09-15T13:26:17.774Z,8.60
2022-09-15T13:28:48.756Z,10.40
2022-09-15T13:31:50.878Z,9.80
2022-09-15T13:35:05.205Z,9.90
2022-09-15T13:38:22.981Z,12.30
2022-09-15T13:41:05.281Z,13.30
2022-09-15T13:43:41.008Z,10.60
2022-09-15T13:46:35.948Z,14.30
2022-09-15T13:49:32.810Z,11.50
2022-09-15T13:52:42.037Z,13.70
2022-09-15T13:55:27.885Z,11.60
2022-09-15T14:01:06.912Z,9.20
2022-09-15T14:04:00.704Z,9.50
2022-09-15T14:06:35.061Z,9.90
2022-09-15T14:09:18.076Z,12.20
2022-09-15T14:11:53.114Z,11.20
2022-09-15T14:14:44.405Z,8.50
2022-09-15T14:17:23.958Z,11.60
2022-09-15T14:19:55.977Z,9.00
2022-09-15T14:22:33.652Z,7.30
2022-09-15T14:25:16.556Z,17.90
2022-09-15T14:27:49.681Z,9.20
2022-09-15T14:30:29.785Z,10.40
2022-09-15T14:33:02.815Z,8.80
2022-09-15T14:35:37.083Z,9.00
2022-09-15T14:38:05.298Z,7.10
2022-09-15T14:40:39.430Z,10.10
2022-09-15T14:43:39.561Z,9.80
2022-09-15T14:46:17.939Z,10.40
2022-09-15T14:48:45.792Z,8.20
2022-09-15T14:51:28.657Z,12.80
2022-09-15T14:54:01.094Z,13.00
2022-09-15T14:56:42.249Z,10.60
2022-09-15T14:59:43.230Z,9.70
2022-09-15T15:02:35.717Z,10.00
2022-09-15T15:05:41.098Z,8.90
2022-09-15T15:08:18.788Z,10.00
2022-09-15T15:10:46.675Z,7.90
2022-09-15T15:13:17.724Z,13.80
2022-09-15T15:18:40.421Z,11.00
2022-09-15T15:21:33.669Z,15.10
2022-09-15T15:24:17.155Z,11.00
2022-09-15T15:26:48.287Z,9.60
2022-09-15T15:29:48.262Z,10.50
2022-09-15T15:32:27.179Z,12.30
2022-09-15T15:35:01.737Z,10.40
2022-09-15T15:37:33.845Z,10.20
2022-09-15T15:40:07.012Z,11.80
2022-09-15T15:42:34.937Z,12.60
2022-09-15T15:45:26.017Z,11.20
2022-09-15T15:47:53.930Z,14.40
2022-09-15T15:50:28.153Z,10.40
2022-09-15T15:52:55.998Z,10.70
2022-09-15T15:55:30.932Z,11.50
2022-09-15T15:57:59.009Z,13.70
2022-09-15T16:00:38.768Z,9.50
2022-09-15T16:03:07.097Z,11.40
2022-09-15T16:05:34.938Z,14.20
2022-09-15T16:08:11.209Z,12.30
2022-09-15T16:10:44.581Z,10.60
2022-09-15T16:13:18.776Z,12.30
2022-09-15T16:15:47.229Z,14.20
2022-09-15T16:18:15.530Z,13.60
2022-09-15T16:20:43.902Z,8.20
2022-09-15T16:23:17.348Z,8.00
2022-09-15T16:25:54.225Z,9.10
2022-09-15T16:28:22.102Z,11.20
2022-09-15T16:30:50.003Z,8.70
2022-09-15T16:33:19.108Z,9.50
2022-09-15T16:35:56.006Z,9.20
2022-09-15T16:38:25.873Z,7.50
2022-09-15T16:40:53.757Z,9.60
2022-09-15T16:43:22.524Z,12.50
2022-09-15T16:45:51.455Z,12.60
2022-09-15T16:48:19.764Z,10.10
2022-09-15T16:51:08.407Z,11.40
2022-09-15T16:53:39.447Z,7.40
2022-09-15T16:56:11.752Z,11.40
2022-09-15T16:58:40.851Z,9.90
2022-09-15T17:01:19.123Z,12.30
2022-09-15T17:03:48.841Z,8.50
2022-09-15T17:06:22.099Z,8.60
2022-09-15T17:08:50.645Z,12.00
2022-09-15T17:11:20.924Z,10.50
2022-09-15T17:13:48.731Z,11.70
2022-09-15T17:16:19.678Z,9.80
2022-09-15T17:18:50.458Z,12.20
2022-09-15T17:21:20.623Z,7.80
2022-09-15T17:23:50.387Z,9.30
2022-09-15T17:26:31.044Z,8.80
2022-09-15T17:31:27.965Z,7.80
2022-09-15T17:33:56.417Z,8.40
2022-09-15T17:36:25.134Z,7.40
2022-09-15T17:38:53.641Z,11.90
2022-09-15T17:41:24.271Z,8.70
2022-09-15T17:43:53.238Z,7.40
2022-09-15T17:46:24.194Z,9.10
2022-09-15T17:48:52.473Z,9.60
2022-09-15T17:51:20.836Z,8.00
2022-09-15T17:53:49.600Z,12.30
2022-09-15T17:56:17.636Z,11.00
2022-09-15T17:58:45.817Z,11.50
2022-09-15T18:01:16.140Z,14.00
2022-09-15T18:03:45.619Z,13.80
2022-09-15T18:06:14.387Z,14.80
2022-09-15T18:08:42.076Z,15.70
2022-09-15T18:11:14.461Z,18.60
2022-09-15T18:13:48.861Z,21.60
2022-09-15T18:16:18.020Z,13.90
2022-09-15T18:18:49.990Z,16.90
2022-09-15T18:21:28.829Z,18.90
2022-09-15T18:23:56.673Z,15.90
2022-09-15T18:26:26.625Z,20.40
2022-09-15T18:28:55.912Z,18.30
2022-09-15T18:31:24.257Z,16.10
2022-09-15T18:33:53.070Z,18.60
2022-09-15T18:36:21.551Z,14.10
2022-09-15T18:38:52.294Z,14.90
2022-09-15T18:41:20.809Z,10.40
2022-09-15T18:43:52.418Z,13.10
2022-09-15T18:46:21.245Z,9.10
2022-09-15T18:48:50.241Z,10.60
2022-09-15T18:51:29.091Z,7.50
2022-09-15T18:54:03.460Z,7.30
2022-09-15T18:56:32.423Z,11.80
2022-09-15T18:59:00.108Z,8.80
2022-09-15T19:01:28.790Z,10.00
2022-09-15T19:04:00.926Z,12.30
2022-09-15T19:06:30.727Z,12.20
2022-09-15T19:08:59.201Z,8.00
2022-09-15T19:11:29.241Z,8.30
2022-09-15T19:14:04.430Z,11.50
2022-09-15T19:16:56.594Z,6.30
2022-09-15T19:19:30.126Z,6.90
2022-09-15T19:22:01.724Z,11.30
2022-09-15T19:24:37.015Z,9.60
2022-09-15T19:27:09.737Z,6.60
2022-09-15T19:29:41.547Z,11.10
2022-09-15T19:32:20.255Z,6.40
2022-09-15T19:34:50.024Z,7.70
2022-09-15T19:37:20.986Z,10.60
2022-09-15T19:40:03.213Z,9.50
2022-09-15T19:42:32.644Z,10.60
2022-09-15T19:45:00.256Z,8.50
2022-09-15T19:47:27.966Z,10.00
2022-09-15T19:49:55.701Z,8.00
2022-09-15T19:52:23.528Z,6.90
2022-09-15T19:54:51.230Z,9.50
2022-09-15T19:57:19.623Z,7.90
2022-09-15T19:59:47.268Z,9.40
2022-09-15T20:02:15.168Z,7.20
2022-09-15T20:04:43.469Z,11.80
2022-09-15T20:07:12.460Z,7.90
2022-09-15T20:09:40.535Z,8.80
2022-09-15T20:12:08.246Z,8.10
2022-09-15T20:14:35.993Z,8.00
2022-09-15T20:17:04.289Z,7.80
2022-09-15T20:19:32.528Z,8.90
2022-09-15T20:22:00.197Z,8.50
2022-09-15T20:24:27.890Z,7.10
2022-09-15T20:26:55.520Z,8.10
2022-09-15T20:29:23.790Z,7.70
2022-09-15T20:31:51.548Z,9.30
2022-09-15T20:34:19.304Z,9.80
2022-09-15T20:36:46.996Z,8.90
2022-09-15T20:39:18.729Z,5.00
2022-09-15T20:41:46.454Z,6.50
2022-09-15T20:44:14.991Z,8.10
2022-09-15T20:46:43.191Z,7.80
2022-09-15T20:49:12.276Z,9.20
2022-09-15T20:51:40.153Z,6.20
2022-09-15T20:54:07.875Z,6.80
2022-09-15T20:56:35.856Z,6.30
2022-09-15T20:59:05.194Z,7.20
2022-09-15T21:01:36.654Z,8.20
2022-09-15T21:04:07.550Z,12.10
2022-09-15T21:06:36.157Z,9.60
2022-09-15T21:09:05.161Z,10.10
2022-09-15T21:11:33.547Z,7.80
2022-09-15T21:14:01.632Z,10.70
2022-09-15T21:16:30.057Z,6.80
2022-09-15T21:18:58.776Z,10.30
2022-09-15T21:21:30.188Z,8.10
2022-09-15T21:29:00.090Z,10.10
2022-09-15T21:31:33.316Z,6.60
2022-09-15T21:34:00.954Z,9.00
2022-09-15T21:36:31.634Z,7.50
2022-09-15T21:38:59.628Z,6.50
2022-09-15T21:41:30.019Z,8.80
2022-09-15T21:43:59.385Z,5.10
2022-09-15T21:46:30.762Z,13.90
2022-09-15T21:51:29.815Z,6.60
2022-09-15T21:53:59.356Z,9.20
2022-09-15T21:56:29.825Z,12.80
2022-09-15T21:58:58.045Z,8.10
2022-09-15T22:01:29.787Z,7.20
2022-09-15T22:04:06.559Z,8.50
2022-09-15T22:06:40.218Z,7.30
2022-09-15T22:09:21.714Z,5.30
2022-09-15T22:11:49.494Z,8.90
2022-09-15T22:14:17.711Z,7.60
2022-09-15T22:16:45.422Z,6.40
2022-09-15T22:19:13.288Z,6.00
2022-09-15T22:21:42.037Z,8.70
2022-09-15T22:24:13.051Z,8.10
2022-09-15T22:26:42.681Z,7.60
2022-09-15T22:29:11.469Z,5.60
2022-09-15T22:31:39.314Z,6.80
2022-09-15T22:34:07.046Z,5.20
2022-09-15T22:36:34.978Z,7.90
2022-09-15T22:39:05.234Z,5.90
2022-09-15T22:41:39.622Z,8.60
2022-09-15T22:44:17.893Z,5.50
2022-09-15T22:46:46.047Z,5.80
2022-09-15T22:49:13.878Z,6.60
2022-09-15T22:51:41.846Z,6.00
2022-09-15T22:54:09.561Z,4.50
2022-09-15T22:56:37.252Z,8.90
2022-09-15T22:59:04.895Z,6.90
2022-09-15T23:01:32.522Z,4.90
2022-09-15T23:04:02.181Z,5.70
2022-09-15T23:06:33.593Z,8.10
2022-09-15T23:09:06.105Z,4.60
2022-09-15T23:11:34.669Z,7.60
2022-09-15T23:14:03.169Z,5.10
2022-09-15T23:16:31.948Z,5.90
2022-09-15T23:19:00.126Z,7.50
2022-09-15T23:21:28.473Z,7.00
2022-09-15T23:23:56.722Z,4.10
2022-09-15T23:26:25.713Z,3.70
2022-09-15T23:28:53.823Z,6.00
2022-09-15T23:31:22.620Z,5.00
2022-09-15T23:33:50.576Z,5.50
2022-09-15T23:36:19.637Z,5.20
2022-09-15T23:38:48.646Z,6.70
2022-09-15T23:41:17.599Z,5.60
2022-09-15T23:43:46.310Z,5.30
2022-09-15T23:46:15.157Z,4.90
2022-09-15T23:48:43.088Z,5.50
2022-09-15T23:51:10.782Z,6.60
2022-09-15T23:53:38.555Z,3.80
2022-09-15T23:56:06.961Z,4.40
2022-09-15T23:58:34.933Z,5.90
